sensor_id;sensor_type;location;lat;lon;timestamp;P1;durP1;ratioP1;P2;durP2;ratioP2
17441;SDS011;8838;50.144;8.176;2023-08-08T00:01:58;4.70;;;2.45;;
17441;SDS011;8838;50.144;8.176;2023-08-08T00:04:25;4.53;;;1.60;;
17441;SDS011;8838;50.144;8.176;2023-08-08T00:06:51;2.53;;;1.65;;
17441;SDS011;8838;50.144;8.176;2023-08-08T00:09:19;2.97;;;1.73;;
17441;SDS011;8838;50.144;8.176;2023-08-08T00:11:46;4.95;;;2.05;;
17441;SDS011;8838;50.144;8.176;2023-08-08T00:14:13;5.25;;;1.98;;
17441;SDS011;8838;50.144;8.176;2023-08-08T00:16:41;6.07;;;2.20;;
17441;SDS011;8838;50.144;8.176;2023-08-08T00:19:08;3.95;;;1.88;;
17441;SDS011;8838;50.144;8.176;2023-08-08T00:21:35;4.10;;;2.00;;
17441;SDS011;8838;50.144;8.176;2023-08-08T00:24:01;4.90;;;2.15;;
17441;SDS011;8838;50.144;8.176;2023-08-08T00:26:30;3.83;;;2.08;;
17441;SDS011;8838;50.144;8.176;2023-08-08T00:28:56;3.40;;;1.80;;
17441;SDS011;8838;50.144;8.176;2023-08-08T00:31:23;4.32;;;1.95;;
17441;SDS011;8838;50.144;8.176;2023-08-08T00:33:50;5.00;;;2.08;;
17441;SDS011;8838;50.144;8.176;2023-08-08T00:36:17;5.38;;;2.03;;
17441;SDS011;8838;50.144;8.176;2023-08-08T00:38:43;6.78;;;1.75;;
17441;SDS011;8838;50.144;8.176;2023-08-08T00:41:10;4.07;;;2.10;;
17441;SDS011;8838;50.144;8.176;2023-08-08T00:43:38;4.90;;;2.17;;
17441;SDS011;8838;50.144;8.176;2023-08-08T00:46:05;3.35;;;1.85;;
17441;SDS011;8838;50.144;8.176;2023-08-08T00:48:32;5.53;;;1.90;;
17441;SDS011;8838;50.144;8.176;2023-08-08T00:50:59;3.75;;;1.92;;
17441;SDS011;8838;50.144;8.176;2023-08-08T00:53:27;4.70;;;2.40;;
17441;SDS011;8838;50.144;8.176;2023-08-08T00:55:56;9.63;;;2.20;;
17441;SDS011;8838;50.144;8.176;2023-08-08T00:58:25;1.88;;;1.70;;
17441;SDS011;8838;50.144;8.176;2023-08-08T01:00:53;3.63;;;2.17;;
17441;SDS011;8838;50.144;8.176;2023-08-08T01:03:24;3.85;;;2.08;;
17441;SDS011;8838;50.144;8.176;2023-08-08T01:05:54;3.25;;;1.83;;
17441;SDS011;8838;50.144;8.176;2023-08-08T01:08:30;2.92;;;1.80;;
17441;SDS011;8838;50.144;8.176;2023-08-08T01:11:05;4.90;;;2.25;;
17441;SDS011;8838;50.144;8.176;2023-08-08T01:13:32;2.30;;;2.10;;
17441;SDS011;8838;50.144;8.176;2023-08-08T01:16:01;4.80;;;1.77;;
17441;SDS011;8838;50.144;8.176;2023-08-08T01:18:31;2.85;;;1.70;;
17441;SDS011;8838;50.144;8.176;2023-08-08T01:20:58;4.57;;;2.20;;
17441;SDS011;8838;50.144;8.176;2023-08-08T01:23:28;3.65;;;2.00;;
17441;SDS011;8838;50.144;8.176;2023-08-08T01:26:02;5.65;;;2.05;;
17441;SDS011;8838;50.144;8.176;2023-08-08T01:28:29;3.95;;;1.70;;
17441;SDS011;8838;50.144;8.176;2023-08-08T01:30:56;2.50;;;1.83;;
17441;SDS011;8838;50.144;8.176;2023-08-08T01:33:22;4.57;;;1.80;;
17441;SDS011;8838;50.144;8.176;2023-08-08T01:35:50;4.45;;;1.90;;
17441;SDS011;8838;50.144;8.176;2023-08-08T01:38:23;2.88;;;2.00;;
17441;SDS011;8838;50.144;8.176;2023-08-08T01:40:57;5.78;;;2.10;;
17441;SDS011;8838;50.144;8.176;2023-08-08T01:43:25;4.65;;;2.00;;
17441;SDS011;8838;50.144;8.176;2023-08-08T01:45:53;2.72;;;2.08;;
17441;SDS011;8838;50.144;8.176;2023-08-08T01:48:21;5.72;;;2.30;;
17441;SDS011;8838;50.144;8.176;2023-08-08T01:50:47;4.70;;;2.00;;
17441;SDS011;8838;50.144;8.176;2023-08-08T01:53:14;3.88;;;2.00;;
17441;SDS011;8838;50.144;8.176;2023-08-08T01:55:41;3.97;;;1.67;;
17441;SDS011;8838;50.144;8.176;2023-08-08T01:58:08;6.20;;;2.17;;
17441;SDS011;8838;50.144;8.176;2023-08-08T02:00:36;5.75;;;1.85;;
17441;SDS011;8838;50.144;8.176;2023-08-08T02:03:05;3.00;;;2.20;;
17441;SDS011;8838;50.144;8.176;2023-08-08T02:05:32;3.47;;;1.70;;
17441;SDS011;8838;50.144;8.176;2023-08-08T02:07:59;7.43;;;1.60;;
17441;SDS011;8838;50.144;8.176;2023-08-08T02:10:26;2.75;;;1.90;;
17441;SDS011;8838;50.144;8.176;2023-08-08T02:12:53;3.45;;;1.83;;
17441;SDS011;8838;50.144;8.176;2023-08-08T02:15:19;2.47;;;1.70;;
17441;SDS011;8838;50.144;8.176;2023-08-08T02:17:49;3.55;;;1.98;;
17441;SDS011;8838;50.144;8.176;2023-08-08T02:20:16;2.47;;;1.85;;
17441;SDS011;8838;50.144;8.176;2023-08-08T02:22:43;3.20;;;1.90;;
17441;SDS011;8838;50.144;8.176;2023-08-08T02:25:10;3.47;;;2.25;;
17441;SDS011;8838;50.144;8.176;2023-08-08T02:27:36;2.67;;;2.10;;
17441;SDS011;8838;50.144;8.176;2023-08-08T02:30:04;7.00;;;2.28;;
17441;SDS011;8838;50.144;8.176;2023-08-08T02:32:31;2.95;;;2.10;;
17441;SDS011;8838;50.144;8.176;2023-08-08T02:34:59;3.42;;;1.90;;
17441;SDS011;8838;50.144;8.176;2023-08-08T02:37:26;4.82;;;1.88;;
17441;SDS011;8838;50.144;8.176;2023-08-08T02:39:53;6.50;;;2.03;;
17441;SDS011;8838;50.144;8.176;2023-08-08T02:42:19;4.95;;;1.98;;
17441;SDS011;8838;50.144;8.176;2023-08-08T02:44:46;4.32;;;2.28;;
17441;SDS011;8838;50.144;8.176;2023-08-08T02:47:13;2.30;;;2.10;;
17441;SDS011;8838;50.144;8.176;2023-08-08T02:49:40;3.10;;;2.03;;
17441;SDS011;8838;50.144;8.176;2023-08-08T02:52:08;3.88;;;2.15;;
17441;SDS011;8838;50.144;8.176;2023-08-08T02:54:35;5.63;;;2.10;;
17441;SDS011;8838;50.144;8.176;2023-08-08T02:57:01;3.10;;;1.95;;
17441;SDS011;8838;50.144;8.176;2023-08-08T02:59:28;2.72;;;1.90;;
17441;SDS011;8838;50.144;8.176;2023-08-08T03:01:55;3.65;;;2.40;;
17441;SDS011;8838;50.144;8.176;2023-08-08T03:04:22;3.28;;;1.83;;
17441;SDS011;8838;50.144;8.176;2023-08-08T03:06:49;5.88;;;2.08;;
17441;SDS011;8838;50.144;8.176;2023-08-08T03:09:17;2.63;;;1.70;;
17441;SDS011;8838;50.144;8.176;2023-08-08T03:11:43;2.10;;;1.90;;
17441;SDS011;8838;50.144;8.176;2023-08-08T03:14:10;4.85;;;2.00;;
17441;SDS011;8838;50.144;8.176;2023-08-08T03:16:37;3.88;;;2.10;;
17441;SDS011;8838;50.144;8.176;2023-08-08T03:19:04;2.92;;;2.17;;
17441;SDS011;8838;50.144;8.176;2023-08-08T03:21:30;1.95;;;1.73;;
17441;SDS011;8838;50.144;8.176;2023-08-08T03:23:57;4.90;;;1.85;;
17441;SDS011;8838;50.144;8.176;2023-08-08T03:26:26;2.03;;;1.83;;
17441;SDS011;8838;50.144;8.176;2023-08-08T03:28:52;2.53;;;1.90;;
17441;SDS011;8838;50.144;8.176;2023-08-08T03:31:19;3.35;;;1.98;;
17441;SDS011;8838;50.144;8.176;2023-08-08T03:33:47;3.78;;;1.85;;
17441;SDS011;8838;50.144;8.176;2023-08-08T03:36:14;5.13;;;1.63;;
17441;SDS011;8838;50.144;8.176;2023-08-08T03:38:40;4.88;;;2.00;;
17441;SDS011;8838;50.144;8.176;2023-08-08T03:41:09;3.53;;;1.60;;
17441;SDS011;8838;50.144;8.176;2023-08-08T03:43:37;2.42;;;1.80;;
17441;SDS011;8838;50.144;8.176;2023-08-08T03:46:04;6.07;;;1.90;;
17441;SDS011;8838;50.144;8.176;2023-08-08T03:48:32;4.05;;;2.13;;
17441;SDS011;8838;50.144;8.176;2023-08-08T03:50:59;2.92;;;1.63;;
17441;SDS011;8838;50.144;8.176;2023-08-08T03:53:26;4.47;;;1.90;;
17441;SDS011;8838;50.144;8.176;2023-08-08T03:55:52;4.38;;;1.85;;
17441;SDS011;8838;50.144;8.176;2023-08-08T03:58:19;4.20;;;1.90;;
17441;SDS011;8838;50.144;8.176;2023-08-08T04:00:47;3.75;;;1.58;;
17441;SDS011;8838;50.144;8.176;2023-08-08T04:03:14;5.70;;;1.67;;
17441;SDS011;8838;50.144;8.176;2023-08-08T04:05:43;3.83;;;1.70;;
17441;SDS011;8838;50.144;8.176;2023-08-08T04:08:14;2.95;;;1.90;;
17441;SDS011;8838;50.144;8.176;2023-08-08T04:10:41;2.17;;;1.70;;
17441;SDS011;8838;50.144;8.176;2023-08-08T04:13:09;3.90;;;1.90;;
17441;SDS011;8838;50.144;8.176;2023-08-08T04:15:36;2.60;;;1.77;;
17441;SDS011;8838;50.144;8.176;2023-08-08T04:18:05;5.88;;;1.95;;
17441;SDS011;8838;50.144;8.176;2023-08-08T04:20:32;4.97;;;1.73;;
17441;SDS011;8838;50.144;8.176;2023-08-08T04:22:59;3.33;;;1.85;;
17441;SDS011;8838;50.144;8.176;2023-08-08T04:25:26;3.13;;;1.60;;
17441;SDS011;8838;50.144;8.176;2023-08-08T04:27:53;5.03;;;1.77;;
17441;SDS011;8838;50.144;8.176;2023-08-08T04:30:20;3.97;;;1.90;;
17441;SDS011;8838;50.144;8.176;2023-08-08T04:32:47;2.50;;;2.10;;
17441;SDS011;8838;50.144;8.176;2023-08-08T04:35:16;4.43;;;2.08;;
17441;SDS011;8838;50.144;8.176;2023-08-08T04:37:43;4.25;;;1.90;;
17441;SDS011;8838;50.144;8.176;2023-08-08T04:40:10;2.00;;;1.58;;
17441;SDS011;8838;50.144;8.176;2023-08-08T04:42:37;2.97;;;1.45;;
17441;SDS011;8838;50.144;8.176;2023-08-08T04:45:04;3.53;;;1.58;;
17441;SDS011;8838;50.144;8.176;2023-08-08T04:47:32;3.15;;;1.70;;
17441;SDS011;8838;50.144;8.176;2023-08-08T04:49:59;4.50;;;1.90;;
17441;SDS011;8838;50.144;8.176;2023-08-08T04:52:27;5.68;;;2.28;;
17441;SDS011;8838;50.144;8.176;2023-08-08T04:54:54;2.33;;;1.70;;
17441;SDS011;8838;50.144;8.176;2023-08-08T04:57:20;2.53;;;1.90;;
17441;SDS011;8838;50.144;8.176;2023-08-08T04:59:47;6.25;;;2.30;;
17441;SDS011;8838;50.144;8.176;2023-08-08T05:02:14;2.15;;;1.83;;
17441;SDS011;8838;50.144;8.176;2023-08-08T05:04:41;3.35;;;1.73;;
17441;SDS011;8838;50.144;8.176;2023-08-08T05:07:08;4.45;;;1.73;;
17441;SDS011;8838;50.144;8.176;2023-08-08T05:09:36;3.67;;;1.92;;
17441;SDS011;8838;50.144;8.176;2023-08-08T05:12:03;5.47;;;1.85;;
17441;SDS011;8838;50.144;8.176;2023-08-08T05:14:30;6.32;;;2.03;;
17441;SDS011;8838;50.144;8.176;2023-08-08T05:16:57;4.88;;;1.90;;
17441;SDS011;8838;50.144;8.176;2023-08-08T05:19:24;2.42;;;1.98;;
17441;SDS011;8838;50.144;8.176;2023-08-08T05:21:51;2.33;;;2.13;;
17441;SDS011;8838;50.144;8.176;2023-08-08T05:24:17;3.83;;;2.20;;
17441;SDS011;8838;50.144;8.176;2023-08-08T05:26:45;3.38;;;2.13;;
17441;SDS011;8838;50.144;8.176;2023-08-08T05:29:13;5.78;;;2.30;;
17441;SDS011;8838;50.144;8.176;2023-08-08T05:31:39;4.97;;;2.28;;
17441;SDS011;8838;50.144;8.176;2023-08-08T05:34:06;4.90;;;2.05;;
17441;SDS011;8838;50.144;8.176;2023-08-08T05:36:33;4.03;;;2.22;;
17441;SDS011;8838;50.144;8.176;2023-08-08T05:39:00;2.95;;;2.00;;
17441;SDS011;8838;50.144;8.176;2023-08-08T05:41:26;3.65;;;2.20;;
17441;SDS011;8838;50.144;8.176;2023-08-08T05:43:55;4.47;;;2.00;;
17441;SDS011;8838;50.144;8.176;2023-08-08T05:46:21;3.00;;;1.80;;
17441;SDS011;8838;50.144;8.176;2023-08-08T05:48:48;4.07;;;1.73;;
17441;SDS011;8838;50.144;8.176;2023-08-08T05:51:15;2.83;;;1.75;;
17441;SDS011;8838;50.144;8.176;2023-08-08T05:53:42;5.03;;;2.40;;
17441;SDS011;8838;50.144;8.176;2023-08-08T05:56:08;3.03;;;1.83;;
17441;SDS011;8838;50.144;8.176;2023-08-08T05:58:35;4.25;;;1.90;;
17441;SDS011;8838;50.144;8.176;2023-08-08T06:01:04;6.47;;;1.95;;
17441;SDS011;8838;50.144;8.176;2023-08-08T06:03:34;4.07;;;1.70;;
17441;SDS011;8838;50.144;8.176;2023-08-08T06:06:02;2.42;;;1.65;;
17441;SDS011;8838;50.144;8.176;2023-08-08T06:08:32;2.63;;;1.80;;
17441;SDS011;8838;50.144;8.176;2023-08-08T06:10:59;4.85;;;1.80;;
17441;SDS011;8838;50.144;8.176;2023-08-08T06:13:26;3.40;;;1.58;;
17441;SDS011;8838;50.144;8.176;2023-08-08T06:15:52;3.70;;;1.20;;
17441;SDS011;8838;50.144;8.176;2023-08-08T06:18:21;3.83;;;1.70;;
17441;SDS011;8838;50.144;8.176;2023-08-08T06:20:47;3.63;;;1.40;;
17441;SDS011;8838;50.144;8.176;2023-08-08T06:23:14;4.28;;;1.30;;
17441;SDS011;8838;50.144;8.176;2023-08-08T06:25:41;4.13;;;1.50;;
17441;SDS011;8838;50.144;8.176;2023-08-08T06:28:08;4.75;;;1.30;;
17441;SDS011;8838;50.144;8.176;2023-08-08T06:30:36;3.00;;;1.38;;
17441;SDS011;8838;50.144;8.176;2023-08-08T06:33:03;3.88;;;1.40;;
17441;SDS011;8838;50.144;8.176;2023-08-08T06:35:31;2.75;;;1.10;;
17441;SDS011;8838;50.144;8.176;2023-08-08T06:37:58;3.22;;;1.40;;
17441;SDS011;8838;50.144;8.176;2023-08-08T06:40:25;3.50;;;1.30;;
17441;SDS011;8838;50.144;8.176;2023-08-08T06:42:52;4.03;;;1.25;;
17441;SDS011;8838;50.144;8.176;2023-08-08T06:45:19;4.20;;;1.40;;
17441;SDS011;8838;50.144;8.176;2023-08-08T06:47:46;4.50;;;1.27;;
17441;SDS011;8838;50.144;8.176;2023-08-08T06:50:13;3.55;;;1.30;;
17441;SDS011;8838;50.144;8.176;2023-08-08T06:52:42;4.07;;;1.35;;
17441;SDS011;8838;50.144;8.176;2023-08-08T06:55:09;5.65;;;1.42;;
17441;SDS011;8838;50.144;8.176;2023-08-08T06:57:36;3.85;;;1.10;;
17441;SDS011;8838;50.144;8.176;2023-08-08T07:00:03;2.88;;;1.20;;
17441;SDS011;8838;50.144;8.176;2023-08-08T07:02:31;2.95;;;1.20;;
17441;SDS011;8838;50.144;8.176;2023-08-08T07:04:58;3.70;;;1.40;;
17441;SDS011;8838;50.144;8.176;2023-08-08T07:07:24;2.75;;;1.40;;
17441;SDS011;8838;50.144;8.176;2023-08-08T07:09:53;1.92;;;1.00;;
17441;SDS011;8838;50.144;8.176;2023-08-08T07:12:19;5.88;;;1.30;;
17441;SDS011;8838;50.144;8.176;2023-08-08T07:14:46;3.40;;;1.20;;
17441;SDS011;8838;50.144;8.176;2023-08-08T07:17:13;2.35;;;1.15;;
17441;SDS011;8838;50.144;8.176;2023-08-08T07:19:40;2.40;;;0.90;;
17441;SDS011;8838;50.144;8.176;2023-08-08T07:22:07;3.28;;;1.10;;
17441;SDS011;8838;50.144;8.176;2023-08-08T07:24:35;3.40;;;1.17;;
17441;SDS011;8838;50.144;8.176;2023-08-08T07:27:05;2.47;;;1.02;;
17441;SDS011;8838;50.144;8.176;2023-08-08T07:29:32;4.30;;;1.30;;
17441;SDS011;8838;50.144;8.176;2023-08-08T07:31:59;2.15;;;1.10;;
17441;SDS011;8838;50.144;8.176;2023-08-08T07:34:29;9.18;;;1.00;;
17441;SDS011;8838;50.144;8.176;2023-08-08T07:36:57;2.35;;;1.20;;
17441;SDS011;8838;50.144;8.176;2023-08-08T07:39:24;1.75;;;1.10;;
17441;SDS011;8838;50.144;8.176;2023-08-08T07:41:51;2.97;;;1.33;;
17441;SDS011;8838;50.144;8.176;2023-08-08T07:44:19;2.58;;;1.20;;
17441;SDS011;8838;50.144;8.176;2023-08-08T07:46:46;2.10;;;1.30;;
17441;SDS011;8838;50.144;8.176;2023-08-08T07:49:14;2.45;;;1.10;;
17441;SDS011;8838;50.144;8.176;2023-08-08T07:51:41;1.92;;;1.10;;
17441;SDS011;8838;50.144;8.176;2023-08-08T07:54:08;2.35;;;1.10;;
17441;SDS011;8838;50.144;8.176;2023-08-08T07:56:35;2.67;;;1.05;;
17441;SDS011;8838;50.144;8.176;2023-08-08T07:59:02;3.35;;;1.30;;
17441;SDS011;8838;50.144;8.176;2023-08-08T08:01:30;3.38;;;1.25;;
17441;SDS011;8838;50.144;8.176;2023-08-08T08:03:57;3.28;;;1.30;;
17441;SDS011;8838;50.144;8.176;2023-08-08T08:06:24;2.85;;;1.00;;
17441;SDS011;8838;50.144;8.176;2023-08-08T08:08:51;6.05;;;1.20;;
17441;SDS011;8838;50.144;8.176;2023-08-08T08:11:18;2.67;;;1.20;;
17441;SDS011;8838;50.144;8.176;2023-08-08T08:13:45;2.72;;;0.82;;
17441;SDS011;8838;50.144;8.176;2023-08-08T08:16:11;3.22;;;1.20;;
17441;SDS011;8838;50.144;8.176;2023-08-08T08:18:40;4.18;;;1.10;;
17441;SDS011;8838;50.144;8.176;2023-08-08T08:21:07;2.55;;;1.20;;
17441;SDS011;8838;50.144;8.176;2023-08-08T08:23:34;3.25;;;1.20;;
17441;SDS011;8838;50.144;8.176;2023-08-08T08:26:01;4.78;;;1.50;;
17441;SDS011;8838;50.144;8.176;2023-08-08T08:28:27;3.08;;;1.30;;
17441;SDS011;8838;50.144;8.176;2023-08-08T08:30:54;3.00;;;1.30;;
17441;SDS011;8838;50.144;8.176;2023-08-08T08:33:21;2.78;;;1.27;;
17441;SDS011;8838;50.144;8.176;2023-08-08T08:35:49;2.83;;;1.30;;
17441;SDS011;8838;50.144;8.176;2023-08-08T08:38:16;4.00;;;1.50;;
17441;SDS011;8838;50.144;8.176;2023-08-08T08:40:43;5.25;;;1.25;;
17441;SDS011;8838;50.144;8.176;2023-08-08T08:43:13;2.92;;;1.13;;
17441;SDS011;8838;50.144;8.176;2023-08-08T08:45:42;4.72;;;1.40;;
17441;SDS011;8838;50.144;8.176;2023-08-08T08:48:12;2.92;;;1.20;;
17441;SDS011;8838;50.144;8.176;2023-08-08T08:50:41;3.60;;;1.40;;
17441;SDS011;8838;50.144;8.176;2023-08-08T08:53:11;3.03;;;1.20;;
17441;SDS011;8838;50.144;8.176;2023-08-08T08:55:39;1.42;;;1.02;;
17441;SDS011;8838;50.144;8.176;2023-08-08T08:58:07;2.63;;;1.20;;
17441;SDS011;8838;50.144;8.176;2023-08-08T09:00:35;2.00;;;1.10;;
17441;SDS011;8838;50.144;8.176;2023-08-08T09:03:03;4.32;;;1.40;;
17441;SDS011;8838;50.144;8.176;2023-08-08T09:05:30;4.90;;;1.60;;
17441;SDS011;8838;50.144;8.176;2023-08-08T09:08:00;5.70;;;1.42;;
17441;SDS011;8838;50.144;8.176;2023-08-08T09:10:28;3.67;;;1.10;;
17441;SDS011;8838;50.144;8.176;2023-08-08T09:12:57;3.78;;;1.33;;
17441;SDS011;8838;50.144;8.176;2023-08-08T09:15:24;3.10;;;1.20;;
17441;SDS011;8838;50.144;8.176;2023-08-08T09:17:51;4.43;;;1.00;;
17441;SDS011;8838;50.144;8.176;2023-08-08T09:20:19;4.03;;;1.30;;
17441;SDS011;8838;50.144;8.176;2023-08-08T09:22:45;2.55;;;1.02;;
17441;SDS011;8838;50.144;8.176;2023-08-08T09:25:13;2.67;;;1.40;;
17441;SDS011;8838;50.144;8.176;2023-08-08T09:27:41;3.40;;;1.35;;
17441;SDS011;8838;50.144;8.176;2023-08-08T09:30:09;4.50;;;1.30;;
17441;SDS011;8838;50.144;8.176;2023-08-08T09:32:36;7.65;;;1.38;;
17441;SDS011;8838;50.144;8.176;2023-08-08T09:35:04;3.47;;;1.63;;
17441;SDS011;8838;50.144;8.176;2023-08-08T09:37:34;3.63;;;1.48;;
17441;SDS011;8838;50.144;8.176;2023-08-08T09:40:01;3.30;;;1.20;;
17441;SDS011;8838;50.144;8.176;2023-08-08T09:42:30;2.72;;;1.33;;
17441;SDS011;8838;50.144;8.176;2023-08-08T09:44:59;5.25;;;1.35;;
17441;SDS011;8838;50.144;8.176;2023-08-08T09:47:26;3.60;;;1.40;;
17441;SDS011;8838;50.144;8.176;2023-08-08T09:49:56;3.53;;;1.30;;
17441;SDS011;8838;50.144;8.176;2023-08-08T09:52:26;3.50;;;1.40;;
17441;SDS011;8838;50.144;8.176;2023-08-08T09:54:54;3.55;;;1.38;;
17441;SDS011;8838;50.144;8.176;2023-08-08T09:57:22;2.97;;;1.58;;
17441;SDS011;8838;50.144;8.176;2023-08-08T09:59:49;5.47;;;1.55;;
17441;SDS011;8838;50.144;8.176;2023-08-08T10:02:18;5.63;;;1.23;;
17441;SDS011;8838;50.144;8.176;2023-08-08T10:04:45;3.08;;;1.48;;
17441;SDS011;8838;50.144;8.176;2023-08-08T10:07:13;3.17;;;1.40;;
17441;SDS011;8838;50.144;8.176;2023-08-08T10:09:40;2.67;;;1.30;;
17441;SDS011;8838;50.144;8.176;2023-08-08T10:12:07;4.82;;;1.27;;
17441;SDS011;8838;50.144;8.176;2023-08-08T10:14:36;3.85;;;1.55;;
17441;SDS011;8838;50.144;8.176;2023-08-08T10:17:03;2.67;;;1.50;;
17441;SDS011;8838;50.144;8.176;2023-08-08T10:19:32;2.10;;;1.00;;
17441;SDS011;8838;50.144;8.176;2023-08-08T10:22:03;2.50;;;1.20;;
17441;SDS011;8838;50.144;8.176;2023-08-08T10:24:32;4.85;;;1.50;;
17441;SDS011;8838;50.144;8.176;2023-08-08T10:27:01;2.97;;;1.40;;
17441;SDS011;8838;50.144;8.176;2023-08-08T10:29:30;3.80;;;1.60;;
17441;SDS011;8838;50.144;8.176;2023-08-08T10:31:59;5.15;;;1.48;;
17441;SDS011;8838;50.144;8.176;2023-08-08T10:34:37;3.38;;;1.50;;
17441;SDS011;8838;50.144;8.176;2023-08-08T10:37:05;4.85;;;1.40;;
17441;SDS011;8838;50.144;8.176;2023-08-08T10:39:36;3.13;;;1.33;;
17441;SDS011;8838;50.144;8.176;2023-08-08T10:42:03;2.92;;;1.33;;
17441;SDS011;8838;50.144;8.176;2023-08-08T10:44:30;4.45;;;1.23;;
17441;SDS011;8838;50.144;8.176;2023-08-08T10:46:59;5.35;;;1.60;;
17441;SDS011;8838;50.144;8.176;2023-08-08T10:49:26;4.78;;;1.20;;
17441;SDS011;8838;50.144;8.176;2023-08-08T10:52:01;5.78;;;1.55;;
17441;SDS011;8838;50.144;8.176;2023-08-08T10:54:29;4.80;;;1.25;;
17441;SDS011;8838;50.144;8.176;2023-08-08T10:56:58;3.53;;;1.30;;
17441;SDS011;8838;50.144;8.176;2023-08-08T10:59:26;4.80;;;1.50;;
17441;SDS011;8838;50.144;8.176;2023-08-08T11:02:02;3.40;;;1.40;;
17441;SDS011;8838;50.144;8.176;2023-08-08T11:04:29;6.43;;;1.88;;
17441;SDS011;8838;50.144;8.176;2023-08-08T11:06:59;3.92;;;1.27;;
17441;SDS011;8838;50.144;8.176;2023-08-08T11:09:26;3.05;;;1.40;;
17441;SDS011;8838;50.144;8.176;2023-08-08T11:11:53;4.10;;;1.35;;
17441;SDS011;8838;50.144;8.176;2023-08-08T11:14:20;6.15;;;1.52;;
17441;SDS011;8838;50.144;8.176;2023-08-08T11:16:49;2.55;;;1.48;;
17441;SDS011;8838;50.144;8.176;2023-08-08T11:19:17;6.18;;;2.03;;
17441;SDS011;8838;50.144;8.176;2023-08-08T11:21:45;2.72;;;1.33;;
17441;SDS011;8838;50.144;8.176;2023-08-08T11:24:14;4.53;;;1.42;;
17441;SDS011;8838;50.144;8.176;2023-08-08T11:26:42;3.75;;;1.30;;
17441;SDS011;8838;50.144;8.176;2023-08-08T11:29:10;5.72;;;1.70;;
17441;SDS011;8838;50.144;8.176;2023-08-08T11:31:37;5.30;;;1.65;;
17441;SDS011;8838;50.144;8.176;2023-08-08T11:34:04;3.40;;;1.50;;
17441;SDS011;8838;50.144;8.176;2023-08-08T11:36:31;4.85;;;1.65;;
17441;SDS011;8838;50.144;8.176;2023-08-08T11:38:59;5.90;;;1.77;;
17441;SDS011;8838;50.144;8.176;2023-08-08T11:41:32;3.67;;;1.40;;
17441;SDS011;8838;50.144;8.176;2023-08-08T11:44:01;3.92;;;1.45;;
17441;SDS011;8838;50.144;8.176;2023-08-08T11:46:29;2.95;;;1.48;;
17441;SDS011;8838;50.144;8.176;2023-08-08T11:49:01;3.95;;;1.30;;
17441;SDS011;8838;50.144;8.176;2023-08-08T11:51:28;2.83;;;1.40;;
17441;SDS011;8838;50.144;8.176;2023-08-08T11:53:55;4.68;;;1.40;;
17441;SDS011;8838;50.144;8.176;2023-08-08T11:56:22;4.03;;;1.30;;
17441;SDS011;8838;50.144;8.176;2023-08-08T11:58:50;4.93;;;1.10;;
17441;SDS011;8838;50.144;8.176;2023-08-08T12:01:19;5.15;;;1.45;;
17441;SDS011;8838;50.144;8.176;2023-08-08T12:03:46;3.78;;;1.40;;
17441;SDS011;8838;50.144;8.176;2023-08-08T12:06:13;1.65;;;1.40;;
17441;SDS011;8838;50.144;8.176;2023-08-08T12:08:40;2.88;;;1.25;;
17441;SDS011;8838;50.144;8.176;2023-08-08T12:11:08;6.72;;;1.40;;
17441;SDS011;8838;50.144;8.176;2023-08-08T12:13:38;4.03;;;1.15;;
17441;SDS011;8838;50.144;8.176;2023-08-08T12:16:07;4.88;;;1.52;;
17441;SDS011;8838;50.144;8.176;2023-08-08T12:18:36;6.28;;;1.27;;
17441;SDS011;8838;50.144;8.176;2023-08-08T12:21:04;3.95;;;1.35;;
17441;SDS011;8838;50.144;8.176;2023-08-08T12:23:31;4.93;;;1.20;;
17441;SDS011;8838;50.144;8.176;2023-08-08T12:25:58;3.90;;;1.20;;
17441;SDS011;8838;50.144;8.176;2023-08-08T12:28:25;2.20;;;1.30;;
17441;SDS011;8838;50.144;8.176;2023-08-08T12:30:52;3.80;;;1.50;;
17441;SDS011;8838;50.144;8.176;2023-08-08T12:33:21;3.17;;;1.17;;
17441;SDS011;8838;50.144;8.176;2023-08-08T12:35:47;2.17;;;1.30;;
17441;SDS011;8838;50.144;8.176;2023-08-08T12:38:15;4.15;;;1.17;;
17441;SDS011;8838;50.144;8.176;2023-08-08T12:40:42;2.28;;;1.40;;
17441;SDS011;8838;50.144;8.176;2023-08-08T12:43:09;1.52;;;1.20;;
17441;SDS011;8838;50.144;8.176;2023-08-08T12:45:39;3.95;;;1.17;;
17441;SDS011;8838;50.144;8.176;2023-08-08T12:48:06;4.07;;;1.40;;
17441;SDS011;8838;50.144;8.176;2023-08-08T12:50:34;4.13;;;1.20;;
17441;SDS011;8838;50.144;8.176;2023-08-08T12:53:01;3.10;;;1.27;;
17441;SDS011;8838;50.144;8.176;2023-08-08T12:55:29;4.30;;;1.25;;
17441;SDS011;8838;50.144;8.176;2023-08-08T12:57:55;4.30;;;1.30;;
17441;SDS011;8838;50.144;8.176;2023-08-08T13:00:22;2.60;;;1.00;;
17441;SDS011;8838;50.144;8.176;2023-08-08T13:02:49;1.70;;;1.10;;
17441;SDS011;8838;50.144;8.176;2023-08-08T13:05:16;3.60;;;1.17;;
17441;SDS011;8838;50.144;8.176;2023-08-08T13:07:44;2.95;;;1.20;;
17441;SDS011;8838;50.144;8.176;2023-08-08T13:10:11;4.55;;;1.50;;
17441;SDS011;8838;50.144;8.176;2023-08-08T13:12:38;2.78;;;1.30;;
17441;SDS011;8838;50.144;8.176;2023-08-08T13:15:05;4.55;;;1.30;;
17441;SDS011;8838;50.144;8.176;2023-08-08T13:17:32;2.78;;;1.10;;
17441;SDS011;8838;50.144;8.176;2023-08-08T13:19:59;2.78;;;1.13;;
17441;SDS011;8838;50.144;8.176;2023-08-08T13:22:26;2.92;;;1.20;;
17441;SDS011;8838;50.144;8.176;2023-08-08T13:24:54;2.95;;;1.35;;
17441;SDS011;8838;50.144;8.176;2023-08-08T13:27:21;3.10;;;1.27;;
17441;SDS011;8838;50.144;8.176;2023-08-08T13:29:51;1.55;;;1.10;;
17441;SDS011;8838;50.144;8.176;2023-08-08T13:32:18;2.95;;;1.20;;
17441;SDS011;8838;50.144;8.176;2023-08-08T13:34:44;3.17;;;1.20;;
17441;SDS011;8838;50.144;8.176;2023-08-08T13:37:11;3.05;;;1.05;;
17441;SDS011;8838;50.144;8.176;2023-08-08T13:39:38;3.67;;;1.00;;
17441;SDS011;8838;50.144;8.176;2023-08-08T13:42:07;2.85;;;1.00;;
17441;SDS011;8838;50.144;8.176;2023-08-08T13:44:35;3.95;;;1.40;;
17441;SDS011;8838;50.144;8.176;2023-08-08T13:47:02;2.28;;;1.10;;
17441;SDS011;8838;50.144;8.176;2023-08-08T13:49:28;2.35;;;1.13;;
17441;SDS011;8838;50.144;8.176;2023-08-08T13:51:55;2.33;;;1.20;;
17441;SDS011;8838;50.144;8.176;2023-08-08T13:54:22;2.72;;;1.10;;
17441;SDS011;8838;50.144;8.176;2023-08-08T13:56:49;2.58;;;1.20;;
17441;SDS011;8838;50.144;8.176;2023-08-08T13:59:17;3.55;;;1.10;;
17441;SDS011;8838;50.144;8.176;2023-08-08T14:01:44;5.40;;;1.40;;
17441;SDS011;8838;50.144;8.176;2023-08-08T14:04:11;2.72;;;1.10;;
17441;SDS011;8838;50.144;8.176;2023-08-08T14:06:38;4.50;;;1.30;;
17441;SDS011;8838;50.144;8.176;2023-08-08T14:09:06;2.03;;;1.20;;
17441;SDS011;8838;50.144;8.176;2023-08-08T14:11:33;6.20;;;1.30;;
17441;SDS011;8838;50.144;8.176;2023-08-08T14:14:00;2.88;;;1.08;;
17441;SDS011;8838;50.144;8.176;2023-08-08T14:16:28;2.40;;;1.15;;
17441;SDS011;8838;50.144;8.176;2023-08-08T14:18:54;4.50;;;1.30;;
17441;SDS011;8838;50.144;8.176;2023-08-08T14:21:21;3.65;;;1.10;;
17441;SDS011;8838;50.144;8.176;2023-08-08T14:23:48;1.90;;;0.90;;
17441;SDS011;8838;50.144;8.176;2023-08-08T14:26:15;3.88;;;1.10;;
17441;SDS011;8838;50.144;8.176;2023-08-08T14:28:42;5.13;;;1.20;;
17441;SDS011;8838;50.144;8.176;2023-08-08T14:31:09;3.05;;;1.45;;
17441;SDS011;8838;50.144;8.176;2023-08-08T14:33:37;2.45;;;1.20;;
17441;SDS011;8838;50.144;8.176;2023-08-08T14:36:04;3.47;;;1.10;;
17441;SDS011;8838;50.144;8.176;2023-08-08T14:38:34;5.32;;;1.40;;
17441;SDS011;8838;50.144;8.176;2023-08-08T14:41:02;2.67;;;1.00;;
17441;SDS011;8838;50.144;8.176;2023-08-08T14:43:29;3.00;;;1.25;;
17441;SDS011;8838;50.144;8.176;2023-08-08T14:45:56;2.67;;;1.20;;
17441;SDS011;8838;50.144;8.176;2023-08-08T14:48:23;3.70;;;1.25;;
17441;SDS011;8838;50.144;8.176;2023-08-08T14:50:51;4.15;;;1.23;;
17441;SDS011;8838;50.144;8.176;2023-08-08T14:53:18;5.35;;;1.27;;
17441;SDS011;8838;50.144;8.176;2023-08-08T14:55:45;2.10;;;1.10;;
17441;SDS011;8838;50.144;8.176;2023-08-08T14:58:12;3.63;;;1.10;;
17441;SDS011;8838;50.144;8.176;2023-08-08T15:00:40;4.53;;;1.17;;
17441;SDS011;8838;50.144;8.176;2023-08-08T15:03:07;3.80;;;1.10;;